Terminal Aerodrome Forecast
Issued by NWS Wakefield, VA

Home | Current Version | Previous Version | Text Only | Print | Product List | Glossary On
Versions: 1 2 3 4 5 6 7 8 9 10 11 12 13 14 15
000
FTUS41 KAKQ 270500
TAFSBY
TAF
KSBY 270537Z 2706/2806 00000KT 1/2SM FZFG VV003
      TEMPO 2706/2710 2SM BR SCT003 BKN050
     FM271000 VRB03KT 3SM BR BKN050
     FM271300 35006KT P6SM BKN015 OVC050
     FM272200 34009KT P6SM SCT025 BKN040=

USA.gov is the U.S. government's official web portal to all federal, state and local government web resources and services.